createdAt,value
2023-02-11T00:00:07.727Z,1.47
2023-02-11T00:00:18.719Z,1.44
2023-02-11T00:00:29.495Z,1.50
2023-02-11T00:00:40.557Z,1.43
2023-02-11T00:00:51.912Z,1.44
2023-02-11T00:01:02.169Z,1.43
2023-02-11T00:01:13.241Z,1.43
2023-02-11T00:01:24.240Z,1.47
2023-02-11T00:01:35.048Z,1.44
2023-02-11T00:01:46.068Z,1.44
2023-02-11T00:01:57.103Z,1.43
2023-02-11T00:02:07.919Z,1.47
2023-02-11T00:02:18.949Z,1.44
2023-02-11T00:02:29.971Z,1.37
2023-02-11T00:02:40.703Z,1.42
2023-02-11T00:02:51.894Z,1.42
2023-02-11T00:03:02.861Z,1.43
2023-02-11T00:03:13.618Z,1.42
2023-02-11T00:03:24.658Z,1.44
2023-02-11T00:03:35.682Z,1.46
2023-02-11T00:03:46.540Z,1.43
2023-02-11T00:03:57.081Z,1.44
2023-02-11T00:04:08.050Z,1.43
2023-02-11T00:04:18.794Z,1.46
2023-02-11T00:04:29.876Z,1.40
2023-02-11T00:04:40.828Z,1.43
2023-02-11T00:04:51.628Z,1.42
2023-02-11T00:05:02.174Z,1.40
2023-02-11T00:05:13.151Z,1.40
2023-02-11T00:05:23.940Z,1.39
2023-02-11T00:05:34.966Z,1.40
2023-02-11T00:05:45.940Z,1.40
2023-02-11T00:05:56.699Z,1.37
2023-02-11T00:06:07.777Z,1.36
2023-02-11T00:06:18.749Z,1.34
2023-02-11T00:06:29.568Z,1.42
2023-02-11T00:06:40.606Z,1.37
2023-02-11T00:06:51.543Z,1.44
2023-02-11T00:07:02.344Z,1.39
2023-02-11T00:07:13.380Z,1.34
2023-02-11T00:07:24.353Z,1.33
2023-02-11T00:07:35.133Z,1.40
2023-02-11T00:07:46.172Z,1.42
2023-02-11T00:07:57.158Z,1.40
2023-02-11T00:08:07.918Z,1.39
2023-02-11T00:08:19.019Z,1.33
2023-02-11T00:08:29.958Z,1.39
2023-02-11T00:08:40.719Z,1.37
2023-02-11T00:08:51.764Z,1.40
2023-02-11T00:09:02.727Z,1.37
2023-02-11T00:09:13.493Z,1.36
2023-02-11T00:09:24.543Z,1.39
2023-02-11T00:09:35.520Z,1.39
2023-02-11T00:09:46.284Z,1.34
2023-02-11T00:09:57.434Z,1.34
2023-02-11T00:10:08.361Z,1.26
2023-02-11T00:10:19.132Z,1.34
2023-02-11T00:10:30.186Z,1.33
2023-02-11T00:10:41.171Z,1.29
2023-02-11T00:10:52.057Z,1.28
2023-02-11T00:11:02.611Z,1.33
2023-02-11T00:11:13.589Z,1.32
2023-02-11T00:11:24.433Z,1.40
2023-02-11T00:11:34.901Z,1.28
2023-02-11T00:11:45.894Z,1.29
2023-02-11T00:11:56.688Z,1.33
2023-02-11T00:12:07.740Z,1.29
2023-02-11T00:12:18.768Z,1.32
2023-02-11T00:12:29.538Z,1.34
2023-02-11T00:12:40.593Z,1.32
2023-02-11T00:12:51.556Z,1.32
2023-02-11T00:13:02.337Z,1.28
2023-02-11T00:13:13.393Z,1.34
2023-02-11T00:13:24.376Z,1.25
2023-02-11T00:13:35.137Z,1.28
2023-02-11T00:13:46.218Z,1.26
2023-02-11T00:13:57.212Z,1.29
2023-02-11T00:14:07.956Z,1.34
2023-02-11T00:14:19.014Z,1.29
2023-02-11T00:14:29.980Z,1.28
2023-02-11T00:14:40.735Z,1.29
2023-02-11T00:14:51.792Z,1.26
2023-02-11T00:15:02.767Z,1.25
2023-02-11T00:15:13.602Z,1.29
2023-02-11T00:15:24.091Z,1.29
2023-02-11T00:15:35.053Z,1.24
2023-02-11T00:15:45.821Z,1.32
2023-02-11T00:15:56.891Z,1.28
2023-02-11T00:16:07.861Z,1.33
2023-02-11T00:16:18.654Z,1.33
2023-02-11T00:16:29.782Z,1.34
2023-02-11T00:16:40.774Z,1.28
2023-02-11T00:16:51.595Z,1.28
2023-02-11T00:17:02.164Z,1.37
2023-02-11T00:17:13.171Z,1.33
2023-02-11T00:17:23.912Z,1.33
2023-02-11T00:17:34.998Z,1.26
2023-02-11T00:17:45.920Z,1.26
2023-02-11T00:17:56.736Z,1.29
2023-02-11T00:18:07.255Z,1.39
2023-02-11T00:18:18.229Z,1.32
2023-02-11T00:18:29.007Z,1.28
2023-02-11T00:18:40.073Z,1.36
2023-02-11T00:18:51.036Z,1.33
2023-02-11T00:19:01.799Z,1.36
2023-02-11T00:19:12.859Z,1.36
2023-02-11T00:19:23.831Z,1.33
2023-02-11T00:19:34.612Z,1.36
2023-02-11T00:19:45.658Z,1.33
2023-02-11T00:19:56.618Z,1.34
2023-02-11T00:20:08.358Z,1.36
2023-02-11T00:20:18.451Z,1.33
2023-02-11T00:20:29.375Z,1.33
2023-02-11T00:20:40.131Z,1.33
2023-02-11T00:20:51.226Z,1.29
2023-02-11T00:21:02.173Z,1.32
2023-02-11T00:21:12.978Z,1.39
2023-02-11T00:21:23.515Z,1.28
2023-02-11T00:21:34.480Z,1.32
2023-02-11T00:21:45.286Z,1.40
2023-02-11T00:21:56.332Z,1.39
2023-02-11T00:22:07.288Z,1.28
2023-02-11T00:22:18.055Z,1.36
2023-02-11T00:22:29.118Z,1.39
2023-02-11T00:22:40.075Z,1.28
2023-02-11T00:22:50.851Z,1.32
2023-02-11T00:23:01.903Z,1.39
2023-02-11T00:23:12.928Z,1.37
2023-02-11T00:23:23.695Z,1.36
2023-02-11T00:23:34.734Z,1.36
2023-02-11T00:23:45.699Z,1.29
2023-02-11T00:23:56.465Z,1.34
2023-02-11T00:24:07.537Z,1.37
2023-02-11T00:24:18.486Z,1.39
2023-02-11T00:24:29.266Z,1.33
2023-02-11T00:24:40.324Z,1.36
2023-02-11T00:24:51.307Z,1.33
2023-02-11T00:25:02.105Z,1.40
2023-02-11T00:25:13.134Z,1.39
2023-02-11T00:25:24.108Z,1.40
2023-02-11T00:25:34.891Z,1.36
2023-02-11T00:25:45.944Z,1.39
2023-02-11T00:25:57.025Z,1.34
2023-02-11T00:26:07.793Z,1.37
2023-02-11T00:26:18.849Z,1.37
2023-02-11T00:26:29.838Z,1.40
2023-02-11T00:26:40.615Z,1.37
2023-02-11T00:26:51.658Z,1.37
2023-02-11T00:27:02.643Z,1.36
2023-02-11T00:27:13.424Z,1.36
2023-02-11T00:27:24.481Z,1.39
2023-02-11T00:27:35.442Z,1.36
2023-02-11T00:27:46.245Z,1.34
2023-02-11T00:27:57.308Z,1.34
2023-02-11T00:28:08.303Z,1.36
2023-02-11T00:28:19.088Z,1.34
2023-02-11T00:28:29.745Z,1.36
2023-02-11T00:28:40.672Z,1.34
2023-02-11T00:28:51.478Z,1.36
2023-02-11T00:29:02.516Z,1.32
2023-02-11T00:29:13.488Z,1.37
2023-02-11T00:29:24.227Z,1.36
2023-02-11T00:29:35.278Z,1.36
2023-02-11T00:29:46.266Z,1.29
2023-02-11T00:29:57.020Z,1.36
2023-02-11T00:30:08.114Z,1.34
2023-02-11T00:30:19.056Z,1.36
2023-02-11T00:30:29.862Z,1.36
2023-02-11T00:30:41.028Z,1.39
2023-02-11T00:30:51.569Z,1.34
2023-02-11T00:31:02.389Z,1.34
2023-02-11T00:31:13.171Z,1.39
2023-02-11T00:31:23.901Z,1.29
2023-02-11T00:31:35.004Z,1.39
2023-02-11T00:31:45.743Z,1.34
2023-02-11T00:31:56.367Z,1.36
2023-02-11T00:32:07.115Z,1.36
2023-02-11T00:32:18.176Z,1.37
2023-02-11T00:32:29.128Z,1.36
2023-02-11T00:32:39.902Z,1.32
2023-02-11T00:32:50.948Z,1.37
2023-02-11T00:33:01.959Z,1.36
2023-02-11T00:33:12.693Z,1.36
2023-02-11T00:33:23.757Z,1.36
2023-02-11T00:33:34.726Z,1.36
2023-02-11T00:33:45.494Z,1.39
2023-02-11T00:33:56.551Z,1.34
2023-02-11T00:34:07.519Z,1.34
2023-02-11T00:34:18.328Z,1.37
2023-02-11T00:34:29.374Z,1.32
2023-02-11T00:34:40.358Z,1.25
2023-02-11T00:34:51.115Z,1.34
2023-02-11T00:35:02.171Z,1.32
2023-02-11T00:35:13.131Z,1.33
2023-02-11T00:35:23.955Z,1.26
2023-02-11T00:35:34.975Z,1.29
2023-02-11T00:35:45.939Z,1.26
2023-02-11T00:35:56.734Z,1.33
2023-02-11T00:36:07.792Z,1.29
2023-02-11T00:36:18.763Z,1.28
2023-02-11T00:36:29.520Z,1.26
2023-02-11T00:36:40.620Z,1.26
2023-02-11T00:36:51.566Z,1.26
2023-02-11T00:37:02.374Z,1.24
2023-02-11T00:37:13.395Z,1.32
2023-02-11T00:37:24.426Z,1.25
2023-02-11T00:37:35.188Z,1.26
2023-02-11T00:37:45.708Z,1.26
2023-02-11T00:37:56.704Z,1.29
2023-02-11T00:38:07.464Z,1.22
2023-02-11T00:38:18.564Z,1.34
2023-02-11T00:38:29.529Z,1.24
2023-02-11T00:38:40.323Z,1.28
2023-02-11T00:38:51.357Z,1.26
2023-02-11T00:39:02.339Z,1.21
2023-02-11T00:39:13.178Z,1.25
2023-02-11T00:39:23.645Z,1.24
2023-02-11T00:39:34.650Z,1.22
2023-02-11T00:39:45.435Z,1.25
2023-02-11T00:39:56.492Z,1.21
2023-02-11T00:40:07.557Z,1.18
2023-02-11T00:40:18.259Z,1.29
2023-02-11T00:40:29.313Z,1.18
2023-02-11T00:40:40.325Z,1.14
2023-02-11T00:40:51.083Z,1.21
2023-02-11T00:41:02.146Z,1.22
2023-02-11T00:41:13.118Z,1.26
2023-02-11T00:41:23.958Z,1.25
2023-02-11T00:41:34.976Z,1.21
2023-02-11T00:41:45.944Z,1.19
2023-02-11T00:41:56.746Z,1.24
2023-02-11T00:42:07.772Z,1.14
2023-02-11T00:42:18.745Z,1.25
2023-02-11T00:42:29.521Z,1.16
2023-02-11T00:42:40.580Z,1.15
2023-02-11T00:42:51.531Z,1.24
2023-02-11T00:43:02.312Z,1.22
2023-02-11T00:43:13.384Z,1.18
2023-02-11T00:43:24.326Z,1.22
2023-02-11T00:43:35.117Z,1.21
2023-02-11T00:43:46.155Z,1.24
2023-02-11T00:43:57.203Z,1.19
2023-02-11T00:44:07.946Z,1.22
2023-02-11T00:44:18.993Z,1.21
2023-02-11T00:44:29.965Z,1.18
2023-02-11T00:44:40.729Z,1.19
2023-02-11T00:44:51.828Z,1.21
2023-02-11T00:45:02.780Z,1.16
2023-02-11T00:45:13.568Z,1.24
2023-02-11T00:45:24.600Z,1.15
2023-02-11T00:45:35.575Z,1.18
2023-02-11T00:45:46.377Z,1.19
2023-02-11T00:45:57.453Z,1.19
2023-02-11T00:46:08.521Z,1.18
2023-02-11T00:46:19.312Z,1.21
2023-02-11T00:46:30.447Z,1.21
2023-02-11T00:46:41.461Z,1.18
2023-02-11T00:46:52.233Z,1.21
2023-02-11T00:47:03.281Z,1.10
2023-02-11T00:47:14.339Z,1.16
2023-02-11T00:47:25.082Z,1.14
2023-02-11T00:47:36.119Z,1.16
2023-02-11T00:47:47.105Z,1.18
2023-02-11T00:47:57.859Z,1.21
2023-02-11T00:48:08.923Z,1.18
2023-02-11T00:48:19.877Z,1.19
2023-02-11T00:48:30.678Z,1.24
2023-02-11T00:48:41.694Z,1.19
2023-02-11T00:48:52.666Z,1.19
2023-02-11T00:49:03.446Z,1.24
2023-02-11T00:49:14.474Z,1.18
2023-02-11T00:49:25.513Z,1.24
2023-02-11T00:49:36.252Z,1.18
2023-02-11T00:49:47.299Z,1.19
2023-02-11T00:49:58.264Z,1.19
2023-02-11T00:50:09.068Z,1.25
2023-02-11T00:50:20.108Z,1.16
2023-02-11T00:50:31.069Z,1.15
2023-02-11T00:50:41.871Z,1.19
2023-02-11T00:50:52.893Z,1.21
2023-02-11T00:51:03.860Z,1.21
2023-02-11T00:51:14.632Z,1.21
2023-02-11T00:51:25.692Z,1.24
2023-02-11T00:51:36.650Z,1.22
2023-02-11T00:51:47.420Z,1.21
2023-02-11T00:51:58.479Z,1.18
2023-02-11T00:52:09.464Z,1.24
2023-02-11T00:52:20.247Z,1.26
2023-02-11T00:52:31.290Z,1.16
2023-02-11T00:52:42.249Z,1.19
2023-02-11T00:52:53.046Z,1.16
2023-02-11T00:53:04.090Z,1.19
2023-02-11T00:53:15.063Z,1.26
2023-02-11T00:53:25.831Z,1.19
2023-02-11T00:53:36.901Z,1.24
2023-02-11T00:53:47.887Z,1.22
2023-02-11T00:53:58.657Z,1.24
2023-02-11T00:54:09.711Z,1.25
2023-02-11T00:54:20.683Z,1.22
2023-02-11T00:54:31.459Z,1.16
2023-02-11T00:54:42.516Z,1.28
2023-02-11T00:54:53.528Z,1.24
2023-02-11T00:55:04.294Z,1.32
2023-02-11T00:55:15.349Z,1.21
2023-02-11T00:55:26.311Z,1.25
2023-02-11T00:55:37.066Z,1.24
2023-02-11T00:55:48.614Z,1.26
2023-02-11T00:55:59.119Z,1.24
2023-02-11T00:56:09.866Z,1.25
2023-02-11T00:56:20.926Z,1.25
2023-02-11T00:56:31.936Z,1.19
2023-02-11T00:56:42.704Z,1.24
2023-02-11T00:56:53.745Z,1.22
2023-02-11T00:57:04.721Z,1.28
2023-02-11T00:57:15.509Z,1.25
2023-02-11T00:57:26.557Z,1.24
2023-02-11T00:57:37.522Z,1.24
2023-02-11T00:57:48.316Z,1.25
2023-02-11T00:57:59.339Z,1.24
2023-02-11T00:58:10.317Z,1.32
2023-02-11T00:58:21.079Z,1.21
2023-02-11T00:58:32.129Z,1.26
2023-02-11T00:58:43.100Z,1.19
2023-02-11T00:58:53.897Z,1.25
2023-02-11T00:59:04.986Z,1.26
2023-02-11T00:59:15.940Z,1.26
2023-02-11T00:59:26.712Z,1.22
2023-02-11T00:59:37.752Z,1.24
2023-02-11T00:59:48.729Z,1.24
2023-02-11T00:59:59.497Z,1.26
2023-02-11T01:00:10.552Z,1.26
2023-02-11T01:00:21.545Z,1.28
2023-02-11T01:00:32.354Z,1.22
2023-02-11T01:00:43.390Z,1.24
2023-02-11T01:00:54.371Z,1.32
2023-02-11T01:01:05.185Z,1.25
2023-02-11T01:01:15.815Z,1.24
2023-02-11T01:01:26.342Z,1.28
2023-02-11T01:01:37.112Z,1.25
2023-02-11T01:01:48.218Z,1.22
2023-02-11T01:01:59.170Z,1.25
2023-02-11T01:02:09.977Z,1.22
2023-02-11T01:02:21.003Z,1.18
2023-02-11T01:02:32.020Z,1.22
2023-02-11T01:02:42.772Z,1.33
2023-02-11T01:02:53.900Z,1.26
2023-02-11T01:03:04.817Z,1.28
2023-02-11T01:03:15.575Z,1.24
2023-02-11T01:03:26.617Z,1.29
2023-02-11T01:03:37.614Z,1.25
2023-02-11T01:03:48.371Z,1.24
2023-02-11T01:03:59.405Z,1.26
2023-02-11T01:04:10.375Z,1.25
2023-02-11T01:04:21.149Z,1.25
2023-02-11T01:04:32.213Z,1.24
2023-02-11T01:04:43.286Z,1.24
2023-02-11T01:04:54.049Z,1.25
2023-02-11T01:05:05.134Z,1.26
2023-02-11T01:05:16.097Z,1.26
2023-02-11T01:05:26.922Z,1.24
2023-02-11T01:05:38.019Z,1.21
2023-02-11T01:05:48.922Z,1.26
2023-02-11T01:05:59.331Z,1.24
2023-02-11T01:06:10.357Z,1.18
2023-02-11T01:06:21.328Z,1.21
2023-02-11T01:06:32.125Z,1.24
2023-02-11T01:06:43.160Z,1.21
2023-02-11T01:06:54.164Z,1.19
2023-02-11T01:07:04.926Z,1.26
2023-02-11T01:07:16.020Z,1.22
2023-02-11T01:07:26.984Z,1.21
2023-02-11T01:07:37.760Z,1.26
2023-02-11T01:07:48.822Z,1.22
2023-02-11T01:07:59.792Z,1.19
2023-02-11T01:08:10.569Z,1.32
2023-02-11T01:08:21.631Z,1.24
2023-02-11T01:08:32.641Z,1.18
2023-02-11T01:08:43.374Z,1.26
2023-02-11T01:08:54.424Z,1.29
2023-02-11T01:09:05.391Z,1.21
2023-02-11T01:09:16.182Z,1.22
2023-02-11T01:09:27.238Z,1.22
2023-02-11T01:09:38.200Z,1.18
2023-02-11T01:09:49.045Z,1.22
2023-02-11T01:10:00.054Z,1.16
2023-02-11T01:10:11.038Z,1.24
2023-02-11T01:10:21.792Z,1.22
2023-02-11T01:10:32.840Z,1.21
2023-02-11T01:10:43.812Z,1.29
2023-02-11T01:10:54.568Z,1.16
2023-02-11T01:11:05.638Z,1.22
2023-02-11T01:11:16.583Z,1.21
2023-02-11T01:11:27.377Z,1.19
2023-02-11T01:11:38.530Z,1.19
2023-02-11T01:11:49.467Z,1.21
2023-02-11T01:12:00.241Z,1.15
2023-02-11T01:12:11.281Z,1.19
2023-02-11T01:12:22.271Z,1.16
2023-02-11T01:12:36.195Z,1.18
2023-02-11T01:12:43.652Z,1.14
2023-02-11T01:12:54.633Z,1.16
2023-02-11T01:13:05.414Z,1.16
2023-02-11T01:13:16.453Z,1.15
2023-02-11T01:13:27.431Z,1.15
2023-02-11T01:13:38.185Z,1.16
2023-02-11T01:13:49.235Z,1.12
2023-02-11T01:14:00.218Z,1.18
2023-02-11T01:14:10.990Z,1.18
2023-02-11T01:14:22.053Z,1.16
2023-02-11T01:14:33.008Z,1.18
2023-02-11T01:14:43.792Z,1.15
2023-02-11T01:14:54.902Z,1.15
2023-02-11T01:15:05.830Z,1.14
2023-02-11T01:15:16.591Z,1.15
2023-02-11T01:15:27.796Z,1.15
2023-02-11T01:15:38.236Z,1.12
2023-02-11T01:15:49.521Z,1.16
2023-02-11T01:15:59.785Z,1.15
2023-02-11T01:16:10.820Z,1.14
2023-02-11T01:16:21.668Z,1.15
2023-02-11T01:16:32.146Z,1.12
2023-02-11T01:16:43.129Z,1.15
2023-02-11T01:16:53.931Z,1.16
2023-02-11T01:17:04.949Z,1.12
2023-02-11T01:17:15.909Z,1.06
2023-02-11T01:17:26.736Z,1.08
2023-02-11T01:17:37.752Z,1.16
2023-02-11T01:17:48.697Z,1.06
2023-02-11T01:17:59.476Z,1.21
2023-02-11T01:18:10.533Z,1.15
2023-02-11T01:18:21.495Z,1.15
2023-02-11T01:18:32.291Z,1.16
2023-02-11T01:18:43.314Z,1.10
2023-02-11T01:18:54.285Z,1.08
2023-02-11T01:19:05.062Z,1.12
2023-02-11T01:19:16.110Z,1.19
2023-02-11T01:19:27.082Z,1.10
2023-02-11T01:19:37.848Z,1.12
2023-02-11T01:19:48.941Z,1.08
2023-02-11T01:19:59.869Z,1.12
2023-02-11T01:20:10.642Z,1.12
2023-02-11T01:20:21.690Z,1.08
2023-02-11T01:20:32.662Z,1.06
2023-02-11T01:20:43.435Z,1.07
2023-02-11T01:20:54.527Z,1.06
2023-02-11T01:21:05.482Z,1.06
2023-02-11T01:21:16.251Z,1.10
2023-02-11T01:21:27.337Z,1.06
2023-02-11T01:21:38.287Z,1.01
2023-02-11T01:21:49.049Z,1.07
2023-02-11T01:22:00.110Z,1.07
2023-02-11T01:22:11.112Z,1.06
2023-02-11T01:22:21.848Z,1.03
2023-02-11T01:22:32.901Z,1.06
2023-02-11T01:22:43.876Z,1.08
2023-02-11T01:22:54.652Z,1.03
2023-02-11T01:23:05.697Z,0.98
2023-02-11T01:23:16.703Z,1.07
2023-02-11T01:23:27.437Z,1.06
2023-02-11T01:23:38.476Z,1.03
2023-02-11T01:23:49.469Z,1.08
2023-02-11T01:24:00.210Z,1.01
2023-02-11T01:24:11.259Z,1.00
2023-02-11T01:24:22.231Z,1.08
2023-02-11T01:24:33.007Z,1.00
2023-02-11T01:24:44.073Z,1.06
2023-02-11T01:24:55.059Z,1.03
2023-02-11T01:25:05.848Z,1.03
2023-02-11T01:25:16.873Z,1.04
2023-02-11T01:25:27.847Z,1.03
2023-02-11T01:25:38.611Z,1.01
2023-02-11T01:25:50.325Z,1.06
2023-02-11T01:26:00.338Z,1.08
2023-02-11T01:26:11.112Z,0.98
2023-02-11T01:26:22.165Z,1.03
2023-02-11T01:26:33.145Z,0.96
2023-02-11T01:26:43.934Z,1.06
2023-02-11T01:26:54.980Z,1.01
2023-02-11T01:27:05.985Z,1.03
2023-02-11T01:27:16.731Z,1.00
2023-02-11T01:27:27.974Z,1.01
2023-02-11T01:27:38.391Z,1.04
2023-02-11T01:27:49.151Z,1.04
2023-02-11T01:28:00.289Z,1.00
2023-02-11T01:28:11.267Z,1.03
2023-02-11T01:28:22.086Z,1.04
2023-02-11T01:28:32.632Z,0.98
2023-02-11T01:28:43.593Z,1.08
2023-02-11T01:28:54.344Z,1.00
2023-02-11T01:29:05.393Z,1.04
2023-02-11T01:29:16.425Z,1.03
2023-02-11T01:29:27.181Z,1.04
2023-02-11T01:29:38.244Z,1.01
2023-02-11T01:29:49.214Z,0.98
2023-02-11T01:30:00.021Z,1.06
2023-02-11T01:30:11.035Z,0.94
2023-02-11T01:30:22.014Z,1.00
2023-02-11T01:30:32.784Z,1.03
2023-02-11T01:30:43.960Z,1.04
2023-02-11T01:30:54.478Z,1.00
2023-02-11T01:31:05.251Z,1.04
2023-02-11T01:31:16.322Z,0.97
2023-02-11T01:31:27.446Z,1.07
2023-02-11T01:31:38.429Z,1.04
2023-02-11T01:31:49.077Z,0.96
2023-02-11T01:31:59.530Z,1.00
2023-02-11T01:32:10.294Z,1.00
2023-02-11T01:32:21.344Z,1.00
2023-02-11T01:32:32.304Z,1.00
2023-02-11T01:32:43.087Z,1.01
2023-02-11T01:32:54.113Z,1.03
2023-02-11T01:33:05.106Z,1.04
2023-02-11T01:33:15.901Z,1.06
2023-02-11T01:33:26.925Z,1.10
2023-02-11T01:33:38.034Z,1.00
2023-02-11T01:33:48.766Z,1.06
2023-02-11T01:33:59.789Z,1.00
2023-02-11T01:34:10.770Z,1.03
2023-02-11T01:34:21.529Z,0.98
2023-02-11T01:34:32.609Z,1.00
2023-02-11T01:34:43.572Z,1.04
2023-02-11T01:34:54.344Z,1.04
2023-02-11T01:35:05.408Z,1.01
2023-02-11T01:35:16.362Z,1.01
2023-02-11T01:35:27.132Z,0.92
2023-02-11T01:35:38.209Z,1.00
2023-02-11T01:35:49.708Z,1.01
2023-02-11T01:36:00.145Z,0.97
2023-02-11T01:36:11.180Z,1.01
2023-02-11T01:36:22.145Z,0.98
2023-02-11T01:36:32.915Z,0.97
2023-02-11T01:36:43.952Z,0.98
2023-02-11T01:36:54.979Z,1.03
2023-02-11T01:37:05.728Z,1.00
2023-02-11T01:37:16.806Z,1.00
2023-02-11T01:37:27.768Z,1.00
2023-02-11T01:37:38.562Z,0.94
2023-02-11T01:37:49.635Z,0.94
2023-02-11T01:38:00.600Z,1.03
2023-02-11T01:38:11.364Z,1.00
2023-02-11T01:38:22.429Z,0.90
2023-02-11T01:38:33.399Z,0.97
2023-02-11T01:38:44.163Z,0.94
2023-02-11T01:38:55.212Z,0.97
2023-02-11T01:39:06.207Z,0.96
2023-02-11T01:39:16.963Z,0.96
2023-02-11T01:39:28.040Z,0.96
2023-02-11T01:39:39.014Z,0.92
2023-02-11T01:39:49.835Z,0.92
2023-02-11T01:40:00.396Z,0.92
2023-02-11T01:40:11.350Z,0.94
2023-02-11T01:40:22.190Z,0.98
2023-02-11T01:40:32.657Z,0.94
2023-02-11T01:40:43.620Z,0.90
2023-02-11T01:40:54.386Z,0.97
2023-02-11T01:41:05.451Z,0.88
2023-02-11T01:41:16.428Z,1.00
2023-02-11T01:41:27.206Z,0.96
2023-02-11T01:41:38.244Z,0.89
2023-02-11T01:41:49.214Z,0.97
2023-02-11T01:41:59.984Z,0.92
2023-02-11T01:42:11.028Z,0.98
2023-02-11T01:42:22.003Z,0.98
2023-02-11T01:42:32.762Z,0.94
2023-02-11T01:42:43.827Z,0.92
2023-02-11T01:42:54.814Z,0.97
2023-02-11T01:43:05.579Z,0.96
2023-02-11T01:43:16.674Z,0.94
2023-02-11T01:43:27.627Z,0.96
2023-02-11T01:43:38.410Z,0.90
2023-02-11T01:43:49.467Z,0.89
2023-02-11T01:44:00.490Z,0.88
2023-02-11T01:44:11.219Z,0.98
2023-02-11T01:44:22.274Z,0.94
2023-02-11T01:44:33.289Z,0.96
2023-02-11T01:44:44.061Z,0.89
2023-02-11T01:44:55.125Z,0.94
2023-02-11T01:45:06.096Z,0.96
2023-02-11T01:45:16.857Z,0.97
2023-02-11T01:45:27.916Z,0.94
2023-02-11T01:45:38.916Z,0.89
2023-02-11T01:45:50.069Z,0.97
2023-02-11T01:46:00.772Z,0.90
2023-02-11T01:46:11.753Z,0.97
2023-02-11T01:46:22.550Z,0.94
2023-02-11T01:46:33.101Z,0.94
2023-02-11T01:46:44.167Z,0.88
2023-02-11T01:46:54.921Z,0.96
2023-02-11T01:47:05.964Z,0.88
2023-02-11T01:47:16.940Z,0.88
2023-02-11T01:47:27.708Z,0.92
2023-02-11T01:47:38.757Z,0.94
2023-02-11T01:47:49.743Z,0.89
2023-02-11T01:48:00.492Z,0.97
2023-02-11T01:48:11.606Z,0.88
2023-02-11T01:48:22.562Z,0.89
2023-02-11T01:48:33.327Z,0.92
2023-02-11T01:48:44.377Z,0.89
2023-02-11T01:48:55.460Z,0.92
2023-02-11T01:49:06.289Z,0.92
2023-02-11T01:49:16.866Z,0.92
2023-02-11T01:49:27.924Z,0.86
2023-02-11T01:49:38.672Z,0.88
2023-02-11T01:49:49.706Z,0.89
2023-02-11T01:50:00.686Z,0.86
2023-02-11T01:50:11.437Z,0.96
2023-02-11T01:50:22.496Z,0.83
2023-02-11T01:50:33.482Z,0.90
2023-02-11T01:50:44.262Z,0.90
2023-02-11T01:50:55.305Z,0.89
2023-02-11T01:51:06.318Z,0.92
2023-02-11T01:51:17.058Z,0.90
2023-02-11T01:51:28.103Z,0.92
2023-02-11T01:51:39.120Z,0.90
2023-02-11T01:51:49.874Z,0.94
2023-02-11T01:52:00.966Z,0.89
2023-02-11T01:52:11.889Z,0.89
2023-02-11T01:52:22.706Z,0.94
2023-02-11T01:52:33.752Z,0.90
2023-02-11T01:52:44.734Z,0.88
2023-02-11T01:52:55.500Z,0.86
2023-02-11T01:53:06.550Z,0.90
2023-02-11T01:53:17.528Z,0.89
2023-02-11T01:53:28.298Z,0.92
2023-02-11T01:53:39.351Z,0.88
2023-02-11T01:53:50.421Z,0.89
2023-02-11T01:54:01.132Z,0.88
2023-02-11T01:54:12.196Z,0.89
2023-02-11T01:54:23.174Z,0.89
2023-02-11T01:54:33.934Z,0.98
2023-02-11T01:54:45.020Z,0.88
2023-02-11T01:54:55.963Z,0.90
2023-02-11T01:55:06.732Z,0.88
2023-02-11T01:55:17.780Z,0.88
2023-02-11T01:55:28.754Z,0.90
2023-02-11T01:55:39.527Z,0.90
2023-02-11T01:55:50.955Z,0.92
2023-02-11T01:56:01.555Z,0.89
2023-02-11T01:56:12.304Z,0.94
2023-02-11T01:56:23.363Z,0.83
2023-02-11T01:56:34.332Z,0.83
2023-02-11T01:56:45.096Z,0.85
2023-02-11T01:56:56.155Z,0.82
2023-02-11T01:57:07.132Z,0.85
2023-02-11T01:57:17.921Z,0.86
2023-02-11T01:57:28.953Z,0.85
2023-02-11T01:57:39.916Z,0.88
2023-02-11T01:57:50.684Z,0.89
2023-02-11T01:58:01.733Z,0.79
2023-02-11T01:58:12.703Z,0.90
2023-02-11T01:58:23.468Z,0.88
2023-02-11T01:58:34.547Z,0.86
2023-02-11T01:58:45.526Z,0.94
2023-02-11T01:58:56.312Z,0.90
2023-02-11T01:59:07.355Z,0.89
2023-02-11T01:59:18.391Z,0.85
2023-02-11T01:59:29.141Z,0.89
2023-02-11T01:59:40.185Z,0.86
2023-02-11T01:59:51.162Z,0.82
2023-02-11T02:00:01.971Z,0.90
2023-02-11T02:00:12.973Z,0.89
2023-02-11T02:00:23.940Z,0.94
2023-02-11T02:00:34.708Z,0.96
2023-02-11T02:00:45.750Z,0.94
2023-02-11T02:00:56.771Z,0.96
2023-02-11T02:01:07.486Z,0.86
2023-02-11T02:01:18.536Z,0.90
2023-02-11T02:01:29.535Z,0.90
2023-02-11T02:01:40.443Z,0.94
2023-02-11T02:01:50.953Z,0.90
2023-02-11T02:02:02.031Z,0.94
2023-02-11T02:02:12.822Z,0.98
2023-02-11T02:02:23.845Z,0.96
2023-02-11T02:02:34.823Z,0.92
2023-02-11T02:02:45.589Z,0.94
2023-02-11T02:02:56.658Z,0.94
2023-02-11T02:03:07.636Z,0.92
2023-02-11T02:03:18.420Z,0.90
2023-02-11T02:03:29.492Z,0.96
2023-02-11T02:03:40.510Z,0.94
2023-02-11T02:03:51.329Z,1.01
2023-02-11T02:04:01.938Z,0.94
2023-02-11T02:04:12.870Z,0.94
2023-02-11T02:04:23.642Z,0.97
2023-02-11T02:04:34.681Z,0.89
2023-02-11T02:04:45.649Z,0.92
2023-02-11T02:04:56.514Z,0.97
2023-02-11T02:05:06.978Z,0.92
2023-02-11T02:05:17.991Z,0.94
2023-02-11T02:05:28.759Z,0.94
2023-02-11T02:05:39.798Z,0.92
2023-02-11T02:05:51.243Z,0.96
2023-02-11T02:06:01.560Z,1.00
2023-02-11T02:06:12.581Z,0.98
2023-02-11T02:06:23.557Z,1.01
2023-02-11T02:06:34.386Z,0.90
2023-02-11T02:06:45.381Z,0.96
2023-02-11T02:06:56.337Z,0.92
2023-02-11T02:07:07.130Z,0.98
2023-02-11T02:07:18.166Z,0.98
2023-02-11T02:07:29.127Z,1.00
2023-02-11T02:07:39.899Z,1.04
2023-02-11T02:07:50.987Z,0.98
2023-02-11T02:08:01.959Z,0.97
2023-02-11T02:08:12.733Z,1.00
2023-02-11T02:08:23.990Z,0.97
2023-02-11T02:08:34.382Z,1.00
2023-02-11T02:08:45.156Z,1.03
2023-02-11T02:08:56.207Z,0.97
2023-02-11T02:09:07.207Z,0.98
2023-02-11T02:09:17.974Z,1.00
2023-02-11T02:09:29.034Z,1.03
2023-02-11T02:09:40.041Z,1.00
2023-02-11T02:09:50.797Z,0.97
2023-02-11T02:10:01.813Z,0.97
2023-02-11T02:10:12.817Z,0.98
2023-02-11T02:10:23.561Z,1.03
2023-02-11T02:10:34.649Z,0.92
2023-02-11T02:10:45.576Z,1.00
2023-02-11T02:10:56.494Z,1.01
2023-02-11T02:11:07.073Z,1.00
2023-02-11T02:11:18.024Z,0.97
2023-02-11T02:11:28.789Z,0.96
2023-02-11T02:11:39.843Z,0.97
2023-02-11T02:11:50.808Z,0.97
2023-02-11T02:12:01.563Z,1.04
2023-02-11T02:12:12.623Z,1.01
2023-02-11T02:12:23.582Z,0.98
2023-02-11T02:12:34.426Z,1.01
2023-02-11T02:12:45.425Z,0.96
2023-02-11T02:12:56.397Z,0.98
2023-02-11T02:13:07.166Z,1.03
2023-02-11T02:13:18.218Z,0.94
2023-02-11T02:13:29.192Z,0.98
2023-02-11T02:13:39.964Z,0.98
2023-02-11T02:13:51.020Z,1.01
2023-02-11T02:14:01.987Z,0.96
2023-02-11T02:14:12.826Z,1.06
2023-02-11T02:14:23.856Z,0.98
2023-02-11T02:14:34.788Z,1.03
2023-02-11T02:14:45.552Z,1.01
2023-02-11T02:14:56.656Z,1.00
2023-02-11T02:15:07.604Z,0.94
2023-02-11T02:15:18.353Z,1.03
2023-02-11T02:15:29.407Z,1.06
2023-02-11T02:15:40.405Z,1.01
2023-02-11T02:15:51.603Z,1.03
2023-02-11T02:16:01.783Z,1.01
2023-02-11T02:16:12.815Z,1.01
2023-02-11T02:16:23.626Z,1.01
2023-02-11T02:16:34.186Z,1.04
2023-02-11T02:16:45.114Z,1.00
2023-02-11T02:16:55.876Z,1.00
2023-02-11T02:17:06.922Z,0.94
2023-02-11T02:17:17.980Z,1.01
2023-02-11T02:17:28.713Z,1.01
2023-02-11T02:17:39.736Z,0.98
2023-02-11T02:17:50.697Z,1.00
2023-02-11T02:18:01.541Z,1.04
2023-02-11T02:18:12.011Z,1.03
2023-02-11T02:18:23.021Z,1.04
2023-02-11T02:18:33.772Z,1.03
2023-02-11T02:18:44.825Z,1.06
2023-02-11T02:18:55.812Z,1.06
2023-02-11T02:19:06.577Z,1.03
2023-02-11T02:19:17.625Z,1.01
2023-02-11T02:19:28.610Z,1.00
2023-02-11T02:19:39.362Z,1.04
2023-02-11T02:19:50.408Z,0.97
2023-02-11T02:20:01.418Z,1.06
2023-02-11T02:20:12.182Z,1.08
2023-02-11T02:20:23.223Z,1.04
2023-02-11T02:20:34.190Z,1.06
2023-02-11T02:20:44.961Z,1.03
2023-02-11T02:20:56.019Z,1.06
2023-02-11T02:21:06.994Z,1.04
2023-02-11T02:21:17.751Z,1.12
2023-02-11T02:21:28.846Z,1.04
2023-02-11T02:21:39.803Z,1.06
2023-02-11T02:21:50.574Z,1.04
2023-02-11T02:22:01.621Z,1.03
2023-02-11T02:22:12.583Z,1.00
2023-02-11T02:22:23.360Z,1.07
2023-02-11T02:22:34.394Z,1.03
2023-02-11T02:22:45.371Z,1.00
2023-02-11T02:22:56.152Z,1.12
2023-02-11T02:23:07.198Z,1.06
2023-02-11T02:23:18.174Z,1.04
2023-02-11T02:23:28.976Z,1.04
2023-02-11T02:23:40.010Z,1.04
2023-02-11T02:23:50.983Z,1.06
2023-02-11T02:24:01.770Z,1.03
2023-02-11T02:24:14.224Z,1.06
2023-02-11T02:24:23.632Z,1.07
2023-02-11T02:24:34.397Z,1.06
2023-02-11T02:24:45.461Z,1.03
2023-02-11T02:24:56.416Z,1.08
2023-02-11T02:25:07.167Z,1.03
2023-02-11T02:25:18.218Z,1.04